Time;durP1;ratioP1;P1;durP2;ratioP2;P2;SDS_P1;SDS_P2;PMS_P1;PMS_P2;Temp;Humidity;BMP_temperature;BMP_pressure;BME280_temperature;BME280_humidity;BME280_pressure;Samples;Min_cycle;Max_cycle;Signal;HPM_P1;HPM_P2
2022/09/18 00:01:40;;;;;;;7.47;1.00;;;10.90;97.10;;;;;;4147914;28;20057;-83
2022/09/18 00:03:42;;;;;;;6.53;0.60;;;10.90;97.10;;;;;;4149142;28;20046;-83
2022/09/18 00:05:43;;;;;;;5.68;0.77;;;10.90;97.20;;;;;;4131832;28;20088;-83
2022/09/18 00:07:44;;;;;;;11.73;1.20;;;10.90;97.20;;;;;;4149099;28;20045;-83
2022/09/18 00:09:45;;;;;;;3.33;0.50;;;10.90;97.30;;;;;;4148655;28;20041;-83
2022/09/18 00:11:48;;;;;;;9.60;0.93;;;10.90;97.20;;;;;;4148539;28;20129;-83
2022/09/18 00:13:49;;;;;;;7.65;0.70;;;10.90;97.30;;;;;;4131635;28;20046;-83
2022/09/18 00:15:54;;;;;;;8.73;0.98;;;10.90;97.30;;;;;;4148711;28;20048;-83
2022/09/18 00:17:55;;;;;;;14.90;1.33;;;10.90;97.50;;;;;;4131137;28;20053;-83
2022/09/18 00:19:56;;;;;;;9.13;1.42;;;10.90;97.40;;;;;;4149314;28;20042;-83
2022/09/18 00:21:57;;;;;;;8.38;1.00;;;10.90;97.50;;;;;;4149782;28;20385;-83
2022/09/18 00:23:59;;;;;;;9.73;0.70;;;11.00;97.50;;;;;;4149693;28;20041;-84
2022/09/18 00:26:01;;;;;;;7.68;2.10;;;11.00;97.50;;;;;;4149661;28;20484;-83
2022/09/18 00:28:01;;;;;;;5.53;0.60;;;11.00;97.60;;;;;;4149893;28;20145;-83
2022/09/18 00:30:02;;;;;;;7.97;1.00;;;11.00;97.60;;;;;;4132236;28;20050;-83
2022/09/18 00:32:03;;;;;;;5.85;0.63;;;11.00;97.50;;;;;;4147673;28;20049;-83
2022/09/18 00:34:07;;;;;;;9.77;1.10;;;10.40;97.50;;;;;;4149759;28;20125;-83
2022/09/18 00:36:13;;;;;;;8.15;1.58;;;11.00;97.60;;;;;;4149480;28;20077;-83
2022/09/18 00:38:14;;;;;;;15.13;1.15;;;11.00;97.70;;;;;;4149003;28;20053;-83
2022/09/18 00:40:15;;;;;;;6.15;0.80;;;11.00;97.90;;;;;;4148517;28;20048;-83
2022/09/18 00:42:19;;;;;;;7.90;1.02;;;11.00;97.90;;;;;;4114811;28;20470;-83
2022/09/18 00:44:30;;;;;;;4.72;0.90;;;11.00;97.90;;;;;;4147336;28;20499;-83
2022/09/18 00:46:34;;;;;;;5.03;0.95;;;10.50;97.90;;;;;;4148493;28;20558;-83
2022/09/18 00:48:43;;;;;;;6.50;1.08;;;11.00;97.90;;;;;;4148423;28;20049;-83
2022/09/18 00:50:44;;;;;;;10.85;1.02;;;11.00;98.10;;;;;;4130571;28;20125;-83
2022/09/18 00:52:58;;;;;;;10.65;1.20;;;11.10;98.10;;;;;;4148388;28;20112;-83
2022/09/18 00:55:05;;;;;;;11.23;1.20;;;11.00;98.20;;;;;;4147853;28;20488;-83
2022/09/18 00:57:10;;;;;;;7.70;1.35;;;11.10;98.30;;;;;;4148269;28;20030;-83
2022/09/18 00:59:13;;;;;;;5.35;0.63;;;11.10;98.60;;;;;;4147085;28;20103;-83
2022/09/18 01:01:14;;;;;;;5.93;0.90;;;11.10;98.70;;;;;;4147711;28;20389;-83
2022/09/18 01:03:15;;;;;;;8.38;0.60;;;11.10;98.80;;;;;;4148034;28;20049;-83
2022/09/18 01:05:39;;;;;;;10.43;1.40;;;11.00;99.00;;;;;;4147935;28;20054;-83
2022/09/18 01:07:51;;;;;;;4.15;0.68;;;11.00;99.30;;;;;;4109069;28;20054;-83
2022/09/18 01:09:58;;;;;;;4.90;0.55;;;10.90;99.10;;;;;;4147334;28;20120;-83
2022/09/18 01:12:23;;;;;;;6.63;0.90;;;10.90;99.20;;;;;;4130042;28;20050;-83
2022/09/18 01:14:32;;;;;;;5.35;0.88;;;10.90;99.40;;;;;;4129825;28;20492;-83
2022/09/18 01:16:57;;;;;;;6.38;0.60;;;10.80;99.50;;;;;;4129842;28;20149;-83
2022/09/18 01:19:06;;;;;;;3.60;0.73;;;10.80;99.60;;;;;;4128467;28;20062;-83
2022/09/18 01:21:13;;;;;;;6.10;0.60;;;10.70;99.50;;;;;;4131102;28;20042;-83
2022/09/18 01:23:51;;;;;;;2.03;0.40;;;10.80;99.60;;;;;;4130961;28;20046;-83
2022/09/18 01:26:05;;;;;;;6.17;0.73;;;10.70;99.80;;;;;;4131180;28;20046;-83
2022/09/18 01:28:19;;;;;;;3.17;0.65;;;10.70;99.80;;;;;;4130217;28;20343;-83
2022/09/18 01:30:20;;;;;;;4.38;0.38;;;10.70;99.80;;;;;;4131559;28;20042;-83
2022/09/18 01:32:31;;;;;;;8.15;1.08;;;10.70;99.90;;;;;;4147007;28;20156;-83
2022/09/18 01:34:46;;;;;;;6.82;0.82;;;10.70;99.90;;;;;;4147201;28;20060;-83
2022/09/18 01:36:54;;;;;;;8.82;1.75;;;10.70;99.90;;;;;;4129400;28;20590;-83
2022/09/18 01:39:03;;;;;;;2.83;0.63;;;10.60;99.90;;;;;;4147167;28;20491;-83
2022/09/18 01:41:34;;;;;;;4.40;0.98;;;10.70;99.90;;;;;;4129253;28;20060;-83
2022/09/18 01:43:38;;;;;;;4.25;0.93;;;10.60;99.90;;;;;;4113781;28;20436;-83
2022/09/18 01:45:47;;;;;;;8.80;1.35;;;10.70;99.90;;;;;;4146783;28;20054;-82
2022/09/18 01:47:53;;;;;;;5.05;0.57;;;10.70;99.90;;;;;;4147123;28;20536;-83
2022/09/18 01:49:56;;;;;;;6.32;1.10;;;10.60;99.90;;;;;;4129371;28;20378;-83
2022/09/18 01:52:05;;;;;;;4.35;1.08;;;10.70;99.90;;;;;;4129407;28;20086;-82
2022/09/18 01:54:15;;;;;;;5.35;0.60;;;10.60;99.90;;;;;;4147071;28;20049;-82
2022/09/18 01:56:40;;;;;;;5.78;0.80;;;10.60;99.90;;;;;;4147959;28;20048;-83
2022/09/18 01:58:42;;;;;;;3.85;0.45;;;10.60;99.90;;;;;;4116838;28;20141;-82
2022/09/18 02:00:50;;;;;;;3.58;0.82;;;10.60;99.90;;;;;;4129777;28;20046;-83
2022/09/18 02:02:53;;;;;;;5.45;0.98;;;10.60;99.90;;;;;;4147928;28;20095;-83
2022/09/18 02:05:01;;;;;;;8.68;1.05;;;10.70;99.90;;;;;;4147274;28;20120;-83
2022/09/18 02:07:25;;;;;;;6.68;1.25;;;10.60;99.90;;;;;;4130389;28;20077;-83
2022/09/18 02:09:27;;;;;;;9.25;0.82;;;10.60;99.90;;;;;;4147347;28;20073;-83
2022/09/18 02:11:30;;;;;;;6.78;1.13;;;10.60;99.90;;;;;;4148026;28;20121;-82
2022/09/18 02:13:37;;;;;;;5.20;0.75;;;10.70;99.90;;;;;;4147349;28;20049;-82
2022/09/18 02:15:40;;;;;;;8.40;0.95;;;10.70;99.90;;;;;;4130197;28;20124;-83
2022/09/18 02:17:57;;;;;;;3.30;0.73;;;10.70;99.90;;;;;;4147553;28;20460;-83
2022/09/18 02:20:08;;;;;;;2.15;0.70;;;10.70;99.90;;;;;;4130126;28;20053;-82
2022/09/18 02:22:13;;;;;;;8.93;1.38;;;10.70;99.90;;;;;;4147761;28;20046;-83
2022/09/18 02:24:18;;;;;;;6.65;1.30;;;10.70;99.90;;;;;;4130044;28;20061;-83
2022/09/18 02:26:20;;;;;;;7.40;0.98;;;10.70;99.90;;;;;;4147838;28;20076;-83
2022/09/18 02:28:24;;;;;;;9.73;0.90;;;10.70;99.90;;;;;;4147364;28;20038;-83
2022/09/18 02:30:27;;;;;;;6.55;1.10;;;10.70;99.90;;;;;;4148370;28;20120;-83
2022/09/18 02:32:28;;;;;;;8.48;1.33;;;10.70;99.90;;;;;;4148648;28;20077;-83
2022/09/18 02:34:30;;;;;;;8.48;1.20;;;10.70;99.90;;;;;;4147237;28;20042;-83
2022/09/18 02:36:46;;;;;;;5.13;1.00;;;10.60;99.90;;;;;;4130899;28;20058;-83
2022/09/18 02:39:05;;;;;;;9.18;1.08;;;10.60;99.90;;;;;;4147484;28;20046;-83
2022/09/18 02:41:25;;;;;;;8.77;0.95;;;10.60;99.90;;;;;;4150792;28;20404;-83
2022/09/18 02:43:37;;;;;;;5.38;0.93;;;10.70;99.90;;;;;;4150868;28;20502;-83
2022/09/18 02:45:52;;;;;;;9.13;1.73;;;10.70;99.90;;;;;;4150907;28;20108;-83
2022/09/18 02:48:17;;;;;;;5.93;1.10;;;10.70;99.90;;;;;;4150723;28;20492;-83
2022/09/18 02:50:21;;;;;;;4.43;0.73;;;10.70;99.90;;;;;;4149899;28;20050;-83
2022/09/18 02:52:41;;;;;;;7.60;0.77;;;10.70;99.90;;;;;;4150706;28;20484;-83
2022/09/18 02:55:04;;;;;;;6.93;1.10;;;10.80;99.90;;;;;;4150699;28;20042;-83
2022/09/18 02:57:20;;;;;;;5.43;1.00;;;10.80;99.90;;;;;;4132395;28;20050;-83
2022/09/18 02:59:27;;;;;;;5.65;0.77;;;10.80;99.90;;;;;;4150371;28;20065;-83
2022/09/18 03:01:29;;;;;;;9.60;1.13;;;10.80;99.90;;;;;;4132942;28;20050;-83
2022/09/18 03:03:32;;;;;;;9.63;1.20;;;10.90;99.90;;;;;;4133599;28;20097;-83
2022/09/18 03:05:33;;;;;;;6.97;0.60;;;10.80;99.90;;;;;;4150458;28;20411;-82
2022/09/18 03:07:33;;;;;;;11.15;1.35;;;10.80;99.90;;;;;;4150746;28;20038;-83
2022/09/18 03:09:34;;;;;;;9.90;0.90;;;10.80;99.90;;;;;;4150734;28;20045;-83
2022/09/18 03:11:36;;;;;;;4.70;0.98;;;10.80;99.90;;;;;;4100128;29;20043;-83
2022/09/18 03:13:37;;;;;;;7.97;1.25;;;10.80;99.90;;;;;;4150526;28;20077;-83
2022/09/18 03:15:38;;;;;;;3.80;1.30;;;10.80;99.90;;;;;;4150130;28;20095;-83
2022/09/18 03:17:42;;;;;;;12.50;2.28;;;10.80;99.90;;;;;;4150350;28;20535;-83
2022/09/18 03:19:43;;;;;;;9.13;1.00;;;10.80;99.90;;;;;;4148612;28;20579;-83
2022/09/18 03:21:44;;;;;;;4.38;0.98;;;10.80;99.90;;;;;;4150425;28;20038;-82
2022/09/18 03:23:45;;;;;;;7.70;1.23;;;10.80;99.90;;;;;;4149936;28;20056;-83
2022/09/18 03:25:49;;;;;;;5.68;0.95;;;10.80;99.90;;;;;;4150589;28;20488;-82
2022/09/18 03:27:54;;;;;;;4.95;0.85;;;10.70;99.90;;;;;;4149873;28;20073;-83
2022/09/18 03:29:55;;;;;;;6.47;0.82;;;10.70;99.90;;;;;;4150214;28;20443;-83
2022/09/18 03:31:56;;;;;;;6.30;0.80;;;10.70;99.90;;;;;;4149735;28;20057;-83
2022/09/18 03:33:57;;;;;;;6.28;0.77;;;10.70;99.90;;;;;;4148681;28;20080;-83
2022/09/18 03:35:57;;;;;;;6.72;0.60;;;10.70;99.90;;;;;;4132220;28;20050;-83
2022/09/18 03:37:58;;;;;;;4.00;0.65;;;10.70;99.90;;;;;;4149849;28;20396;-83
2022/09/18 03:39:59;;;;;;;5.60;1.38;;;10.70;99.90;;;;;;4150113;28;20041;-83
2022/09/18 03:42:00;;;;;;;10.30;1.02;;;10.70;99.90;;;;;;4132547;28;20097;-83
2022/09/18 03:44:00;;;;;;;4.70;0.70;;;10.70;99.90;;;;;;4149953;28;20077;-83
2022/09/18 03:46:01;;;;;;;5.10;0.60;;;10.70;99.90;;;;;;4148088;28;20053;-83
2022/09/18 03:48:02;;;;;;;3.47;0.70;;;10.70;99.90;;;;;;4149972;28;20085;-83
2022/09/18 03:50:05;;;;;;;10.05;1.33;;;10.70;99.90;;;;;;4149744;28;20038;-83
2022/09/18 03:52:06;;;;;;;7.38;1.70;;;10.70;99.90;;;;;;4149334;28;20044;-83
2022/09/18 03:54:06;;;;;;;5.72;0.82;;;10.70;99.90;;;;;;4132077;28;20054;-83
2022/09/18 03:56:07;;;;;;;4.68;0.85;;;10.60;99.90;;;;;;4149858;28;20503;-83
2022/09/18 03:58:09;;;;;;;6.72;0.60;;;10.70;99.90;;;;;;4132227;28;20038;-83
2022/09/18 04:00:11;;;;;;;5.05;0.85;;;10.70;99.90;;;;;;4150291;28;20037;-83
2022/09/18 04:02:11;;;;;;;3.92;1.10;;;10.60;99.90;;;;;;4149793;28;20050;-83
2022/09/18 04:04:12;;;;;;;6.47;0.57;;;10.60;99.90;;;;;;4149785;28;20041;-83
2022/09/18 04:06:13;;;;;;;7.20;0.80;;;10.60;99.90;;;;;;4149652;28;20392;-83
2022/09/18 04:08:13;;;;;;;8.90;0.50;;;10.60;99.90;;;;;;4149420;28;20412;-83
2022/09/18 04:10:15;;;;;;;1.05;0.68;;;10.50;99.90;;;;;;4131456;28;20046;-83
2022/09/18 04:12:15;;;;;;;2.72;0.60;;;10.50;99.90;;;;;;4149654;28;20049;-83
2022/09/18 04:14:16;;;;;;;6.50;0.90;;;10.50;99.90;;;;;;4149681;28;20459;-83
2022/09/18 04:16:17;;;;;;;7.05;1.55;;;10.50;99.90;;;;;;4149600;28;20056;-83
2022/09/18 04:18:17;;;;;;;5.03;1.45;;;10.50;99.90;;;;;;4148743;28;20038;-83
2022/09/18 04:20:18;;;;;;;4.35;0.45;;;10.40;99.90;;;;;;4148593;28;20096;-83
2022/09/18 04:22:19;;;;;;;5.90;0.60;;;10.40;99.90;;;;;;4131739;28;20058;-83
2022/09/18 04:24:20;;;;;;;6.78;0.85;;;10.40;99.90;;;;;;4149055;28;20054;-83
2022/09/18 04:26:21;;;;;;;4.85;0.63;;;10.40;99.90;;;;;;4131634;28;20472;-83
2022/09/18 04:28:23;;;;;;;8.52;0.80;;;10.40;99.90;;;;;;4148347;28;20045;-83
2022/09/18 04:30:24;;;;;;;6.60;1.10;;;9.80;99.90;;;;;;4148966;28;20081;-83
2022/09/18 04:32:24;;;;;;;5.70;0.70;;;10.40;99.90;;;;;;4131573;28;20526;-83
2022/09/18 04:34:25;;;;;;;5.32;0.68;;;10.50;99.90;;;;;;4148786;28;20128;-83
2022/09/18 04:36:26;;;;;;;4.45;1.00;;;10.50;99.90;;;;;;4148426;28;20042;-83
2022/09/18 04:38:27;;;;;;;2.55;0.77;;;10.50;99.90;;;;;;4148731;28;20046;-83
2022/09/18 04:40:27;;;;;;;8.68;0.50;;;10.50;99.90;;;;;;4148779;28;20491;-83
2022/09/18 04:42:28;;;;;;;7.72;0.57;;;10.50;99.90;;;;;;4148120;28;20049;-83
2022/09/18 04:44:29;;;;;;;5.82;0.85;;;10.50;99.90;;;;;;4148349;28;20408;-83
2022/09/18 04:46:29;;;;;;;6.93;0.90;;;9.80;99.90;;;;;;4148580;28;20046;-83
2022/09/18 04:48:30;;;;;;;5.75;0.70;;;10.50;99.90;;;;;;4148309;28;20121;-83
2022/09/18 04:50:31;;;;;;;7.22;1.05;;;10.50;99.90;;;;;;4148438;28;20108;-83
2022/09/18 04:52:31;;;;;;;8.85;1.08;;;10.50;99.90;;;;;;4130530;28;20125;-83
2022/09/18 04:54:32;;;;;;;3.55;0.55;;;10.50;99.90;;;;;;4148032;28;20133;-83
2022/09/18 04:56:33;;;;;;;2.13;0.77;;;10.40;99.90;;;;;;4149116;28;20049;-84
2022/09/18 04:58:33;;;;;;;7.50;0.95;;;10.50;99.90;;;;;;4148787;28;20052;-83
2022/09/18 05:00:37;;;;;;;10.30;1.60;;;10.50;99.90;;;;;;4149183;28;20517;-83
2022/09/18 05:02:37;;;;;;;3.10;0.63;;;10.50;99.90;;;;;;4114540;28;20042;-83
2022/09/18 05:04:38;;;;;;;6.22;0.75;;;10.50;99.90;;;;;;4148437;28;20065;-83
2022/09/18 05:06:39;;;;;;;6.43;0.98;;;10.50;99.90;;;;;;4148493;28;20046;-83
2022/09/18 05:08:39;;;;;;;6.45;1.17;;;10.50;99.90;;;;;;4130810;28;20522;-84
2022/09/18 05:10:41;;;;;;;5.32;0.57;;;10.60;99.90;;;;;;4147699;28;20060;-84
2022/09/18 05:12:43;;;;;;;5.40;0.88;;;10.60;99.90;;;;;;4148003;28;20050;-83
2022/09/18 05:14:44;;;;;;;8.02;0.60;;;10.10;99.90;;;;;;4130647;28;20096;-84
2022/09/18 05:16:45;;;;;;;3.45;0.88;;;10.60;99.90;;;;;;4148054;28;20131;-84
2022/09/18 05:18:45;;;;;;;5.47;1.42;;;10.60;99.90;;;;;;4146410;28;20045;-83
2022/09/18 05:20:46;;;;;;;7.13;1.23;;;10.60;99.90;;;;;;4147927;28;20104;-84
2022/09/18 05:22:47;;;;;;;4.13;0.40;;;10.60;99.90;;;;;;4130518;28;20050;-84
2022/09/18 05:24:47;;;;;;;3.50;0.55;;;10.60;99.90;;;;;;4148269;28;20080;-84
2022/09/18 05:26:48;;;;;;;7.25;0.68;;;10.50;99.90;;;;;;4148067;28;20137;-83
2022/09/18 05:28:49;;;;;;;6.47;0.60;;;10.50;99.90;;;;;;4147391;28;20045;-83
2022/09/18 05:30:50;;;;;;;6.05;0.70;;;10.50;99.90;;;;;;4130151;28;20050;-84
2022/09/18 05:33:02;;;;;;;2.40;0.70;;;10.40;99.90;;;;;;4130854;28;20061;-84
2022/09/18 05:35:03;;;;;;;5.88;0.50;;;10.70;99.90;;;;;;4148206;28;20042;-84
2022/09/18 05:37:04;;;;;;;8.13;0.80;;;10.50;99.90;;;;;;4148424;28;20045;-84
2022/09/18 05:39:05;;;;;;;5.97;0.68;;;10.60;99.90;;;;;;4147995;28;20042;-84
2022/09/18 05:41:05;;;;;;;3.17;0.50;;;10.60;99.90;;;;;;4149472;28;20108;-83
2022/09/18 05:43:08;;;;;;;2.28;0.52;;;10.60;99.90;;;;;;4147718;28;20130;-84
2022/09/18 05:45:09;;;;;;;2.17;0.47;;;10.60;99.90;;;;;;4148044;28;20057;-84
2022/09/18 05:47:10;;;;;;;5.38;0.93;;;10.60;99.90;;;;;;4148288;28;20050;-84
2022/09/18 05:49:10;;;;;;;6.38;0.40;;;10.60;99.90;;;;;;4146660;28;20511;-84
2022/09/18 05:51:11;;;;;;;4.38;0.90;;;10.60;99.90;;;;;;4130413;28;20133;-84
2022/09/18 05:53:14;;;;;;;3.58;0.80;;;10.60;99.90;;;;;;4147588;28;20034;-84
2022/09/18 05:55:14;;;;;;;5.97;1.50;;;10.60;99.90;;;;;;4147428;28;20038;-84
2022/09/18 05:57:19;;;;;;;9.10;1.02;;;10.60;99.90;;;;;;4130612;28;20115;-84
2022/09/18 05:59:20;;;;;;;2.55;0.70;;;10.60;99.90;;;;;;4147949;28;20049;-84
2022/09/18 06:01:21;;;;;;;2.78;1.20;;;10.60;99.90;;;;;;4148196;28;20050;-84
2022/09/18 06:03:25;;;;;;;3.92;0.70;;;10.60;99.90;;;;;;4147819;28;20042;-84
2022/09/18 06:05:27;;;;;;;6.22;0.60;;;10.60;99.90;;;;;;4147858;28;20050;-84
2022/09/18 06:07:28;;;;;;;5.28;0.98;;;10.50;99.90;;;;;;4147930;28;20495;-84
2022/09/18 06:09:28;;;;;;;6.32;0.68;;;10.50;99.90;;;;;;4148287;28;20046;-84
2022/09/18 06:11:29;;;;;;;6.43;0.82;;;10.60;99.90;;;;;;4147586;28;20085;-84
2022/09/18 06:13:30;;;;;;;4.68;0.65;;;10.60;99.90;;;;;;4147896;28;20519;-83
2022/09/18 06:15:32;;;;;;;10.32;0.65;;;10.60;99.90;;;;;;4148721;28;20136;-84
2022/09/18 06:17:32;;;;;;;6.07;1.52;;;10.60;99.90;;;;;;4150499;28;20049;-84
2022/09/18 06:19:34;;;;;;;7.38;1.02;;;10.60;99.90;;;;;;4151421;28;20045;-84
2022/09/18 06:21:35;;;;;;;4.03;0.60;;;10.60;99.90;;;;;;4151263;28;20074;-84
2022/09/18 06:23:35;;;;;;;8.90;1.17;;;10.60;99.90;;;;;;4150847;28;20100;-84
2022/09/18 06:25:36;;;;;;;11.88;1.70;;;10.60;99.90;;;;;;4150983;28;20049;-84
2022/09/18 06:27:37;;;;;;;7.38;0.60;;;10.70;99.90;;;;;;4151113;28;20042;-83
2022/09/18 06:29:38;;;;;;;3.35;0.68;;;10.60;99.90;;;;;;4133994;28;20050;-84
2022/09/18 06:31:38;;;;;;;8.32;0.70;;;10.70;99.90;;;;;;4150122;28;20144;-84
2022/09/18 06:33:39;;;;;;;8.68;1.15;;;10.70;99.90;;;;;;4133391;28;20057;-84
2022/09/18 06:35:41;;;;;;;6.97;1.13;;;10.70;99.90;;;;;;4133436;28;20065;-83
2022/09/18 06:37:42;;;;;;;8.05;1.33;;;10.70;99.90;;;;;;4117231;28;20038;-83
2022/09/18 06:39:43;;;;;;;9.98;1.38;;;10.70;99.90;;;;;;4150701;28;20041;-84
2022/09/18 06:41:43;;;;;;;3.47;0.80;;;10.70;99.90;;;;;;4150807;28;20038;-83
2022/09/18 06:43:49;;;;;;;11.77;2.03;;;10.80;99.90;;;;;;4149441;28;20593;-84
2022/09/18 06:45:54;;;;;;;7.15;0.80;;;10.80;99.90;;;;;;4148899;28;20523;-84
2022/09/18 06:47:54;;;;;;;13.38;1.95;;;10.80;99.90;;;;;;4150475;28;20046;-84
2022/09/18 06:49:55;;;;;;;6.47;1.08;;;10.80;99.90;;;;;;4150674;28;20396;-84
2022/09/18 06:51:56;;;;;;;4.80;1.38;;;10.80;99.90;;;;;;4116770;28;20058;-83
2022/09/18 06:53:56;;;;;;;8.93;0.82;;;10.90;99.90;;;;;;4150253;28;20042;-84
2022/09/18 06:55:58;;;;;;;5.05;1.13;;;10.90;99.90;;;;;;4150455;28;20404;-84
2022/09/18 06:57:59;;;;;;;3.53;0.80;;;10.90;99.90;;;;;;4133312;28;20541;-84
2022/09/18 07:00:03;;;;;;;2.67;0.55;;;11.00;99.90;;;;;;4151015;28;20045;-84
2022/09/18 07:02:10;;;;;;;5.57;0.55;;;10.90;99.90;;;;;;4133570;28;20114;-84
2022/09/18 07:04:11;;;;;;;5.50;0.73;;;11.00;99.90;;;;;;4132207;28;20047;-83
2022/09/18 07:06:11;;;;;;;5.00;0.70;;;11.00;99.90;;;;;;4149876;28;20503;-83
2022/09/18 07:08:13;;;;;;;4.07;0.52;;;11.00;99.90;;;;;;4131952;28;20054;-83
2022/09/18 07:10:13;;;;;;;5.10;0.98;;;11.00;99.90;;;;;;4150765;28;20042;-83
2022/09/18 07:12:14;;;;;;;5.03;0.65;;;11.00;99.90;;;;;;4150602;28;20442;-84
2022/09/18 07:14:15;;;;;;;3.40;0.57;;;11.00;99.90;;;;;;4133151;28;20049;-83
2022/09/18 07:16:16;;;;;;;4.05;1.10;;;11.10;99.90;;;;;;4132516;28;20115;-84
2022/09/18 07:18:16;;;;;;;2.80;0.50;;;11.10;99.90;;;;;;4150077;28;20050;-83
2022/09/18 07:20:18;;;;;;;2.25;0.43;;;11.10;99.90;;;;;;4150675;28;20053;-84
2022/09/18 07:22:19;;;;;;;3.92;0.57;;;11.10;99.90;;;;;;4150262;28;20078;-83
2022/09/18 07:24:20;;;;;;;1.35;0.20;;;11.00;99.90;;;;;;4132437;28;20464;-83
2022/09/18 07:26:20;;;;;;;2.63;0.30;;;11.00;99.90;;;;;;4148887;28;20454;-83
2022/09/18 07:28:22;;;;;;;5.05;0.68;;;11.10;99.90;;;;;;4132046;28;20516;-83
2022/09/18 07:30:23;;;;;;;2.58;0.52;;;11.00;99.90;;;;;;4116415;28;20564;-83
2022/09/18 07:32:24;;;;;;;5.88;0.90;;;10.60;99.90;;;;;;4148723;28;20034;-83
2022/09/18 07:34:25;;;;;;;4.45;0.63;;;11.10;99.90;;;;;;4131329;28;20093;-83
2022/09/18 07:36:26;;;;;;;2.90;0.28;;;11.10;99.90;;;;;;4131874;28;20054;-83
2022/09/18 07:38:27;;;;;;;5.93;0.65;;;10.40;99.90;;;;;;4115863;28;20532;-84
2022/09/18 07:40:28;;;;;;;5.40;0.50;;;11.00;99.90;;;;;;4149369;28;20037;-83
2022/09/18 07:42:29;;;;;;;5.10;0.50;;;11.10;99.90;;;;;;4131780;28;20042;-83
2022/09/18 07:44:33;;;;;;;3.63;0.90;;;11.10;99.90;;;;;;4141396;28;20119;-84
2022/09/18 07:46:33;;;;;;;8.48;1.67;;;11.00;99.90;;;;;;4148942;28;20042;-85
2022/09/18 07:48:34;;;;;;;6.40;0.40;;;11.10;99.90;;;;;;4141580;28;20409;-85
2022/09/18 07:50:35;;;;;;;6.43;0.60;;;11.10;99.90;;;;;;4158802;28;20092;-84
2022/09/18 07:52:36;;;;;;;6.40;0.80;;;11.10;99.90;;;;;;4140771;28;20488;-85
2022/09/18 07:54:37;;;;;;;2.35;0.47;;;11.00;99.90;;;;;;4150081;28;20050;-85
2022/09/18 07:56:38;;;;;;;3.65;0.63;;;11.10;99.90;;;;;;4132632;28;20045;-85
2022/09/18 07:58:38;;;;;;;4.68;1.23;;;11.10;99.90;;;;;;4132972;28;20070;-84
2022/09/18 08:00:39;;;;;;;2.97;0.30;;;11.10;99.90;;;;;;4132636;28;20105;-84
2022/09/18 08:02:40;;;;;;;8.25;0.55;;;11.10;99.90;;;;;;4133072;28;20046;-85
2022/09/18 08:04:41;;;;;;;1.52;0.45;;;11.10;99.90;;;;;;4133574;28;20066;-85
2022/09/18 08:06:45;;;;;;;8.63;0.98;;;11.10;99.90;;;;;;4134106;28;20129;-85
2022/09/18 08:08:46;;;;;;;3.80;0.60;;;11.10;99.90;;;;;;4149232;28;20085;-85
2022/09/18 08:10:47;;;;;;;5.20;0.70;;;11.10;99.90;;;;;;4149215;28;20045;-86
2022/09/18 08:12:51;;;;;;;5.63;0.50;;;11.10;99.90;;;;;;4131753;28;20052;-85
2022/09/18 08:14:52;;;;;;;4.68;1.10;;;11.10;99.90;;;;;;4132215;28;20050;-85
2022/09/18 08:16:53;;;;;;;5.28;0.77;;;11.20;99.90;;;;;;4135838;28;20141;-85
2022/09/18 08:18:56;;;;;;;7.03;0.52;;;11.20;99.90;;;;;;4109040;28;20074;-84
2022/09/18 08:20:57;;;;;;;5.25;1.00;;;11.20;99.90;;;;;;4114068;28;20422;-81
2022/09/18 08:22:57;;;;;;;4.82;0.82;;;11.20;99.90;;;;;;4132066;28;20045;-84
2022/09/18 08:24:58;;;;;;;8.80;1.10;;;11.20;99.90;;;;;;4131802;28;20042;-83
2022/09/18 08:27:02;;;;;;;9.82;1.05;;;11.20;99.90;;;;;;4098756;29;20611;-84
2022/09/18 08:29:04;;;;;;;4.88;0.43;;;11.30;99.90;;;;;;4098704;29;20047;-84
2022/09/18 08:31:05;;;;;;;8.50;0.50;;;11.30;99.90;;;;;;4131461;28;20065;-83
2022/09/18 08:33:07;;;;;;;3.78;0.50;;;11.30;99.90;;;;;;4098652;29;20047;-84
2022/09/18 08:35:09;;;;;;;6.30;1.20;;;11.30;99.90;;;;;;4114958;28;20125;-84
2022/09/18 08:37:10;;;;;;;4.88;0.57;;;11.30;99.90;;;;;;4147606;28;20135;-84
2022/09/18 08:39:11;;;;;;;3.63;0.88;;;11.30;99.90;;;;;;4137326;28;20455;-84
2022/09/18 08:41:23;;;;;;;7.47;1.15;;;11.30;99.90;;;;;;4147963;28;20411;-84
2022/09/18 08:43:31;;;;;;;5.65;0.80;;;11.20;99.90;;;;;;4148414;28;20510;-84
2022/09/18 08:45:57;;;;;;;9.98;0.70;;;11.20;99.90;;;;;;4147245;28;20068;-84
2022/09/18 08:48:23;;;;;;;4.72;1.20;;;11.20;99.90;;;;;;4147303;28;20045;-84
2022/09/18 08:50:29;;;;;;;2.45;0.50;;;11.10;99.90;;;;;;4146320;28;20545;-84
2022/09/18 08:52:44;;;;;;;5.40;0.93;;;11.20;99.90;;;;;;4149438;28;20496;-83
2022/09/18 08:54:47;;;;;;;4.53;0.88;;;11.20;99.90;;;;;;4148061;28;20065;-84
2022/09/18 08:56:50;;;;;;;2.65;0.43;;;11.20;99.90;;;;;;4148228;28;20042;-84
2022/09/18 08:59:02;;;;;;;3.90;0.47;;;11.20;99.90;;;;;;4148704;28;20057;-85
2022/09/18 09:01:08;;;;;;;6.93;1.65;;;11.20;99.90;;;;;;4148539;28;20052;-84
2022/09/18 09:03:27;;;;;;;6.40;1.08;;;11.10;99.90;;;;;;4130666;28;20126;-84
2022/09/18 09:05:38;;;;;;;7.47;0.70;;;11.10;99.90;;;;;;4148492;28;20079;-84
2022/09/18 09:08:11;;;;;;;4.40;0.70;;;11.10;99.90;;;;;;4130794;28;20185;-84
2022/09/18 09:10:31;;;;;;;8.57;0.80;;;11.00;99.90;;;;;;4147536;28;20045;-84
2022/09/18 09:12:49;;;;;;;6.30;0.47;;;11.00;99.90;;;;;;4131259;28;20142;-84
2022/09/18 09:15:07;;;;;;;2.38;0.80;;;11.00;99.90;;;;;;4114813;28;20061;-84
2022/09/18 09:17:42;;;;;;;8.18;0.80;;;11.00;99.90;;;;;;4148063;28;20072;-84
2022/09/18 09:19:50;;;;;;;4.70;0.35;;;11.00;99.90;;;;;;4147934;28;20104;-84
2022/09/18 09:21:59;;;;;;;11.27;2.10;;;10.90;99.90;;;;;;4130610;28;20046;-84
2022/09/18 09:24:26;;;;;;;2.58;0.70;;;11.00;99.90;;;;;;4148190;28;20081;-84
2022/09/18 09:26:31;;;;;;;2.85;0.40;;;11.00;99.90;;;;;;4148081;28;20108;-84
2022/09/18 09:28:55;;;;;;;8.40;1.52;;;11.00;99.90;;;;;;4147792;28;20124;-84
2022/09/18 09:31:00;;;;;;;6.05;0.80;;;11.10;99.90;;;;;;4148061;28;20088;-84
2022/09/18 09:33:24;;;;;;;3.20;0.80;;;11.00;99.90;;;;;;4147612;28;20448;-84
2022/09/18 09:35:37;;;;;;;9.50;1.10;;;11.10;99.90;;;;;;4146355;28;20054;-84
2022/09/18 09:37:42;;;;;;;5.60;1.20;;;11.20;99.90;;;;;;4130429;28;20453;-83
2022/09/18 09:39:52;;;;;;;6.45;1.05;;;11.20;99.90;;;;;;4146902;28;20041;-84
2022/09/18 09:42:02;;;;;;;4.18;0.77;;;11.30;99.90;;;;;;4146535;28;20076;-84
2022/09/18 09:44:26;;;;;;;4.20;0.82;;;11.30;99.90;;;;;;4143359;28;20511;-84
2022/09/18 09:46:38;;;;;;;4.18;0.70;;;11.30;99.90;;;;;;4123255;28;20055;-83
2022/09/18 09:49:04;;;;;;;9.38;0.90;;;11.40;99.90;;;;;;4133544;28;20047;-84
2022/09/18 09:51:21;;;;;;;5.43;1.25;;;11.40;99.90;;;;;;4148380;28;20041;-83
2022/09/18 09:53:23;;;;;;;5.63;0.50;;;11.50;99.90;;;;;;4145187;28;20129;-84
2022/09/18 09:55:43;;;;;;;5.07;0.85;;;11.50;99.90;;;;;;4165252;28;20507;-85
2022/09/18 09:57:57;;;;;;;3.63;0.68;;;11.50;99.90;;;;;;4165036;28;20037;-84
2022/09/18 10:00:11;;;;;;;6.97;1.35;;;11.50;99.90;;;;;;4165195;28;20053;-84
2022/09/18 10:02:35;;;;;;;3.25;0.70;;;11.60;99.90;;;;;;4164666;28;20103;-84
2022/09/18 10:04:51;;;;;;;6.43;1.00;;;11.70;99.90;;;;;;4158086;28;20062;-84
2022/09/18 10:07:08;;;;;;;5.93;0.75;;;11.70;99.90;;;;;;4148743;28;20050;-84
2022/09/18 10:09:23;;;;;;;9.38;0.80;;;11.80;99.90;;;;;;4148971;28;20314;-84
2022/09/18 10:11:24;;;;;;;3.85;0.70;;;11.90;99.90;;;;;;4131128;28;20136;-84
2022/09/18 10:13:32;;;;;;;6.13;0.82;;;11.90;99.90;;;;;;4131361;28;20061;-83
2022/09/18 10:15:38;;;;;;;6.90;0.95;;;12.00;99.90;;;;;;4148976;28;20041;-84
2022/09/18 10:17:40;;;;;;;6.20;0.88;;;12.10;99.90;;;;;;4130836;28;20153;-84
2022/09/18 10:19:42;;;;;;;7.47;0.70;;;12.10;99.90;;;;;;4148885;28;20524;-84
2022/09/18 10:21:44;;;;;;;12.25;1.02;;;12.10;99.90;;;;;;4148724;28;20483;-83
2022/09/18 10:24:32;;;;;;;3.55;0.70;;;12.20;99.90;;;;;;4148420;28;20096;-84
2022/09/18 10:26:39;;;;;;;4.90;0.60;;;12.30;99.90;;;;;;4146465;28;20042;-84
2022/09/18 10:28:40;;;;;;;12.73;2.28;;;12.40;99.90;;;;;;4130369;28;20444;-84
2022/09/18 10:31:02;;;;;;;6.80;0.82;;;12.50;99.90;;;;;;4148005;28;20046;-83
2022/09/18 10:33:02;;;;;;;5.40;1.10;;;12.60;99.90;;;;;;4148667;28;20508;-84
2022/09/18 10:35:29;;;;;;;4.40;1.15;;;12.60;99.90;;;;;;4148448;28;20038;-84
2022/09/18 10:37:30;;;;;;;5.03;0.70;;;12.60;99.90;;;;;;4144573;28;20054;-83
2022/09/18 10:39:37;;;;;;;4.70;0.82;;;12.70;99.90;;;;;;4148014;28;20060;-84
2022/09/18 10:41:39;;;;;;;11.15;1.13;;;12.60;99.90;;;;;;4145039;28;20038;-84
2022/09/18 10:43:57;;;;;;;4.85;0.50;;;12.60;99.90;;;;;;4148165;28;20064;-84
2022/09/18 10:45:59;;;;;;;6.83;0.83;;;12.60;99.90;;;;;;4130048;28;20544;-84
2022/09/18 10:48:13;;;;;;;7.30;0.60;;;12.60;99.90;;;;;;4129679;28;20113;-84
2022/09/18 10:50:15;;;;;;;3.20;0.45;;;12.70;99.90;;;;;;4146387;28;20045;-84
2022/09/18 10:52:26;;;;;;;8.70;1.25;;;12.80;99.90;;;;;;4130149;28;20042;-83